LFRC

Cherbourg-Maupertus Airport

Cherbourg/Maupertus, France
TAF LFRC 230800Z 2309/2318 28010KT 9999 BKN025 PROB40 TEMPO 2309/2312 BKN012
Issued Valid From Valid To
Apr-23 @ 08:00 UTC
(an hour ago)
Apr-23 @ 09:00 UTC
(30 minutes ago)
Apr-23 @ 18:00 UTC
(in 9 hours)
Apr-23 @ 09:00 to Apr-23 @ 18:00
TAF LFRC 230800Z 2309/2318 28010KT 9999 BKN025
Wind Visibility Clouds
280° at 10 knots 10,000+ meters
  • Broken at 2,500' AGL
Temporary  (Probability 40%) Apr-23 @ 09:00 to Apr-23 @ 12:00
PROB40 TEMPO 2309/2312 BKN012
Clouds
  • Broken at 1,200' AGL
TAF LFRC 230800Z 2309/2318 28010KT 9999 BKN025 PROB40 TEMPO 2309/2312 BKN012
Issued Apr-23 @ 08:00 UTC
(an hour ago)
Valid From Apr-23 @ 09:00 UTC
(30 minutes ago)
Valid To Apr-23 @ 18:00 UTC
(in 9 hours)
Apr-23 @ 09:00 - Apr-23 @ 18:00
Wind Visibility
280° at 10 knots 10,000+ meters
Clouds
  • Broken at 2,500' AGL
Probability 40% Temporary Apr-23 @ 09:00 - Apr-23 @ 12:00
Clouds
  • Broken at 1,200' AGL